Weather at Bulamaçlı Border Post Helipad

Public forecast

Using degrees Celsius for public forecast. Weather courtesy of forecast.io.

Closest aviation weather report (METAR) to Bulamaçlı Border Post Helipad

Closest report is Gaziantep International Airport, 33.4 nm (61.8 km) ENE.

2024/05/29 12:20 (retrieved 14 minutes ago)

LTAJ 291220Z 21008KT 150V280 CAVOK 29/04 Q1011 NOSIG

Closest aviation forecast (TAF) to Bulamaçlı Border Post Helipad

Closest forecast is Gaziantep International Airport, 33.4 nm (61.8 km) ENE.

2024/05/29 12:00 (retrieved 34 minutes ago)

TAF LTAJ 291040Z 2912/3012 VRB02KT CAVOK TEMPO 2912/2916 23012KT BECMG 3008/3011 22012KT